Time;durP1;ratioP1;P1;durP2;ratioP2;P2;SDS_P1;SDS_P2;PMS_P1;PMS_P2;Temp;Humidity;BMP_temperature;BMP_pressure;BME280_temperature;BME280_humidity;BME280_pressure;Samples;Min_cycle;Max_cycle;Signal;HPM_P1;HPM_P2
2022/01/13 00:02:27;;;;;;;51.15;46.05;;;-9.50;68.60;;;;;;5092855;28;20020;-64
2022/01/13 00:04:53;;;;;;;41.95;39.72;;;-9.50;68.60;;;;;;5092781;28;20024;-65
2022/01/13 00:07:19;;;;;;;34.75;32.95;;;-9.60;68.50;;;;;;5094103;28;20028;-65
2022/01/13 00:09:44;;;;;;;33.13;31.77;;;-9.60;68.60;;;;;;5094023;28;20103;-65
2022/01/13 00:12:12;;;;;;;41.13;38.40;;;-9.60;68.80;;;;;;5093671;28;20028;-65
2022/01/13 00:14:42;;;;;;;32.53;30.98;;;-9.70;68.70;;;;;;5094053;28;20459;-64
2022/01/13 00:19:48;;;;;;;37.33;35.47;;;-9.70;68.90;;;;;;5094037;28;20036;-65
2022/01/13 00:24:56;;;;;;;32.25;30.67;;;-9.80;68.70;;;;;;5093659;28;20477;-64
2022/01/13 00:27:24;;;;;;;39.20;37.33;;;-9.70;68.80;;;;;;5092791;28;20074;-65
2022/01/13 00:29:50;;;;;;;39.78;37.00;;;-9.70;68.70;;;;;;5094092;28;20024;-64
2022/01/13 00:32:17;;;;;;;38.45;35.92;;;-9.60;68.70;;;;;;5093839;28;20043;-65
2022/01/13 00:34:44;;;;;;;37.15;35.15;;;-9.70;68.60;;;;;;5093481;28;20065;-64
2022/01/13 00:37:10;;;;;;;37.65;34.85;;;-9.70;68.80;;;;;;5093911;28;20044;-65
2022/01/13 00:39:36;;;;;;;42.22;39.53;;;-9.80;68.50;;;;;;5092510;28;20039;-65
2022/01/13 00:42:02;;;;;;;39.33;35.38;;;-9.90;68.70;;;;;;5092416;28;20082;-65
2022/01/13 00:44:34;;;;;;;44.55;40.92;;;-9.80;69.00;;;;;;5092411;28;20028;-65
2022/01/13 00:47:01;;;;;;;35.28;33.15;;;-9.70;69.00;;;;;;5093380;28;20028;-65
2022/01/13 00:49:27;;;;;;;40.13;37.85;;;-9.70;68.80;;;;;;5096508;28;20081;-65
2022/01/13 00:51:54;;;;;;;44.63;41.38;;;-9.80;68.40;;;;;;5097727;28;20056;-65
2022/01/13 00:54:20;;;;;;;39.13;36.58;;;-9.80;68.70;;;;;;5097625;28;20024;-65
2022/01/13 00:56:46;;;;;;;39.72;36.25;;;-9.70;69.00;;;;;;5096385;28;20374;-65
2022/01/13 00:59:14;;;;;;;42.90;39.72;;;-9.60;69.10;;;;;;5097904;28;20024;-65
2022/01/13 01:01:48;;;;;;;38.25;35.92;;;-9.60;69.00;;;;;;5097390;28;20048;-65
2022/01/13 01:04:14;;;;;;;36.00;34.30;;;-9.60;69.00;;;;;;5095864;28;20036;-64
2022/01/13 01:06:40;;;;;;;33.20;31.38;;;-9.50;68.90;;;;;;5096043;28;20119;-64
2022/01/13 01:09:13;;;;;;;38.15;35.92;;;-9.50;68.80;;;;;;5097464;28;20382;-64
2022/01/13 01:11:38;;;;;;;36.17;33.92;;;-9.60;68.60;;;;;;5097167;28;20048;-64
2022/01/13 01:14:07;;;;;;;33.17;31.70;;;-9.80;68.50;;;;;;5096070;28;20039;-65
2022/01/13 01:16:33;;;;;;;39.40;35.90;;;-9.80;68.90;;;;;;5095676;28;20027;-66
2022/01/13 01:19:06;;;;;;;38.40;36.08;;;-9.90;68.90;;;;;;5095984;28;20035;-65
2022/01/13 01:24:57;;;;;;;37.03;35.15;;;-10.00;69.00;;;;;;5096773;28;20170;-65
2022/01/13 01:26:52;;;;;;;38.83;36.70;;;-10.00;69.00;;;;;;5092985;28;20051;-65
2022/01/13 01:29:25;;;;;;;35.85;34.35;;;-10.10;69.00;;;;;;5096004;28;20434;-65
2022/01/13 01:31:54;;;;;;;38.63;36.58;;;-10.10;69.20;;;;;;5095964;28;20032;-65
2022/01/13 01:35:12;;;;;;;38.78;36.55;;;-10.10;69.10;;;;;;5096766;28;20111;-65
2022/01/13 01:37:17;;;;;;;38.42;36.20;;;-10.10;69.10;;;;;;5093614;28;20044;-65
2022/01/13 01:39:45;;;;;;;38.85;36.95;;;-10.20;69.00;;;;;;5095619;28;20028;-65
2022/01/13 01:42:11;;;;;;;37.38;34.28;;;-10.10;69.20;;;;;;5095500;28;20028;-65
2022/01/13 01:44:42;;;;;;;40.67;39.05;;;-10.10;68.90;;;;;;5095686;28;20555;-65
2022/01/13 01:47:13;;;;;;;37.60;35.78;;;-10.30;68.80;;;;;;5095335;28;20032;-65
2022/01/13 01:49:43;;;;;;;37.30;35.30;;;-10.40;68.90;;;;;;5095229;28;20024;-65
2022/01/13 01:52:11;;;;;;;34.67;33.28;;;-10.60;69.00;;;;;;5096271;28;20065;-65
2022/01/13 01:54:37;;;;;;;41.30;39.25;;;-10.70;69.20;;;;;;5095295;28;20478;-65
2022/01/13 01:57:04;;;;;;;38.55;36.28;;;-10.70;69.40;;;;;;5095114;28;20039;-65
2022/01/13 01:59:33;;;;;;;37.97;35.33;;;-10.70;69.50;;;;;;5096146;28;20114;-65
2022/01/13 02:01:58;;;;;;;38.45;36.05;;;-10.70;69.50;;;;;;5094746;28;20038;-66
2022/01/13 02:04:26;;;;;;;38.65;36.33;;;-10.80;69.50;;;;;;5095042;28;20126;-65
2022/01/13 02:06:59;;;;;;;39.45;37.30;;;-10.70;69.70;;;;;;5094946;28;20500;-66
2022/01/13 02:09:25;;;;;;;35.05;32.95;;;-10.70;69.80;;;;;;5094954;28;20085;-65
2022/01/13 02:11:55;;;;;;;35.42;34.13;;;-10.80;69.70;;;;;;5096189;28;20024;-66
2022/01/13 02:17:07;;;;;;;38.53;36.22;;;-10.80;69.70;;;;;;5095941;28;20061;-66
2022/01/13 02:19:36;;;;;;;39.53;37.60;;;-10.80;69.70;;;;;;5095133;28;20034;-65
2022/01/13 02:22:02;;;;;;;39.33;37.78;;;-10.90;69.70;;;;;;5095692;28;20035;-66
2022/01/13 02:24:28;;;;;;;38.17;36.33;;;-10.80;69.80;;;;;;5094464;28;20054;-65
2022/01/13 02:26:54;;;;;;;38.38;36.63;;;-10.90;69.70;;;;;;5094200;28;20051;-65
2022/01/13 02:29:20;;;;;;;62.42;45.70;;;-10.80;69.90;;;;;;5094412;28;20039;-65
2022/01/13 02:31:46;;;;;;;35.15;33.55;;;-10.80;69.70;;;;;;5094183;28;20432;-65
2022/01/13 02:34:12;;;;;;;36.42;34.60;;;-10.90;69.80;;;;;;5094336;28;20077;-65
2022/01/13 02:36:40;;;;;;;36.83;34.72;;;-10.80;69.90;;;;;;5095617;28;20450;-64
2022/01/13 02:39:07;;;;;;;36.05;34.05;;;-10.80;69.90;;;;;;5094242;28;20517;-65
2022/01/13 02:41:33;;;;;;;34.88;32.70;;;-10.80;69.90;;;;;;5093993;28;20024;-65
2022/01/13 02:43:59;;;;;;;38.50;36.17;;;-10.80;69.90;;;;;;5095803;28;20034;-64
2022/01/13 02:48:59;;;;;;;33.65;31.13;;;-10.70;70.00;;;;;;5095580;28;20028;-64
2022/01/13 02:51:26;;;;;;;41.47;38.97;;;-10.70;69.80;;;;;;5094204;28;20360;-65
2022/01/13 02:53:53;;;;;;;39.85;37.85;;;-10.70;69.60;;;;;;5095377;28;20060;-65
2022/01/13 02:56:18;;;;;;;38.33;36.22;;;-10.70;69.50;;;;;;5094035;28;20028;-64
2022/01/13 02:58:45;;;;;;;41.45;38.15;;;-10.70;69.60;;;;;;5093936;28;20502;-65
2022/01/13 03:01:12;;;;;;;38.17;36.10;;;-10.80;69.60;;;;;;5093913;28;20020;-64
2022/01/13 03:03:39;;;;;;;41.05;39.15;;;-10.80;69.60;;;;;;5093985;28;20470;-64
2022/01/13 03:06:06;;;;;;;38.25;36.08;;;-10.80;69.70;;;;;;5093675;28;20505;-64
2022/01/13 03:08:32;;;;;;;37.63;35.30;;;-10.80;69.80;;;;;;5094068;28;20020;-65
2022/01/13 03:10:58;;;;;;;34.15;32.25;;;-10.80;69.90;;;;;;5094081;28;20031;-65
2022/01/13 03:13:24;;;;;;;40.42;37.90;;;-10.70;69.90;;;;;;5094824;28;20359;-65
2022/01/13 03:15:50;;;;;;;38.15;36.25;;;-10.80;69.80;;;;;;5093614;28;20024;-65
2022/01/13 03:18:15;;;;;;;42.38;39.67;;;-10.80;69.80;;;;;;5094864;28;20480;-65
2022/01/13 03:20:41;;;;;;;39.60;37.47;;;-10.90;69.70;;;;;;5093601;28;20030;-65
2022/01/13 03:23:07;;;;;;;41.35;39.17;;;-10.90;69.80;;;;;;5094702;28;20037;-65
2022/01/13 03:25:32;;;;;;;35.40;33.95;;;-10.80;70.00;;;;;;5092739;28;20071;-65
2022/01/13 03:28:05;;;;;;;36.83;34.20;;;-10.70;70.00;;;;;;5094718;28;20355;-65
2022/01/13 03:30:32;;;;;;;34.45;32.60;;;-10.60;70.00;;;;;;5094807;28;20016;-65
2022/01/13 03:32:59;;;;;;;40.25;37.58;;;-10.60;69.70;;;;;;5093708;28;20390;-65
2022/01/13 03:35:25;;;;;;;39.95;37.10;;;-10.70;69.70;;;;;;5093355;28;20119;-67
2022/01/13 03:37:50;;;;;;;41.13;38.33;;;-10.70;69.70;;;;;;5093292;28;20447;-66
2022/01/13 03:40:16;;;;;;;40.20;37.42;;;-10.70;69.80;;;;;;5093202;28;20027;-67
2022/01/13 03:42:42;;;;;;;39.83;37.25;;;-10.80;69.80;;;;;;5093334;28;20056;-66
2022/01/13 03:45:08;;;;;;;42.13;39.20;;;-10.80;69.70;;;;;;5093497;28;20027;-66
2022/01/13 03:47:33;;;;;;;36.17;34.05;;;-10.80;69.60;;;;;;5094150;28;20031;-64
2022/01/13 03:49:59;;;;;;;42.88;40.15;;;-10.90;69.60;;;;;;5093313;28;20028;-64
2022/01/13 03:52:25;;;;;;;39.22;36.80;;;-10.80;69.90;;;;;;5094294;28;20020;-64
2022/01/13 03:55:28;;;;;;;40.28;37.08;;;-10.80;69.90;;;;;;5094228;28;20052;-64
2022/01/13 03:58:31;;;;;;;38.28;36.47;;;-10.90;69.70;;;;;;5094054;28;20562;-64
2022/01/13 04:01:34;;;;;;;37.70;35.60;;;-10.90;69.60;;;;;;5094010;28;20021;-65
2022/01/13 04:04:00;;;;;;;40.28;38.47;;;-11.00;69.60;;;;;;5093282;28;20114;-65
2022/01/13 04:06:41;;;;;;;39.40;36.83;;;-11.10;69.60;;;;;;5091724;28;20122;-65
2022/01/13 04:09:25;;;;;;;37.10;34.88;;;-11.10;69.90;;;;;;5092654;28;20111;-65
2022/01/13 04:11:52;;;;;;;39.97;38.10;;;-11.20;69.90;;;;;;5092675;28;20466;-65
2022/01/13 04:14:27;;;;;;;38.53;35.80;;;-11.20;69.90;;;;;;5092504;28;20161;-65
2022/01/13 04:16:53;;;;;;;41.67;39.45;;;-11.20;69.90;;;;;;5094096;28;20028;-64
2022/01/13 04:19:18;;;;;;;38.95;36.30;;;-11.20;70.00;;;;;;5092462;28;20039;-64
2022/01/13 04:21:44;;;;;;;37.50;35.72;;;-11.20;70.00;;;;;;5093881;28;20378;-65
2022/01/13 04:24:11;;;;;;;42.95;39.70;;;-11.30;70.00;;;;;;5094037;28;20035;-65
2022/01/13 04:26:41;;;;;;;37.80;35.88;;;-11.30;70.10;;;;;;5092222;28;20055;-65
2022/01/13 04:31:49;;;;;;;41.50;37.90;;;-11.30;70.80;;;;;;5093816;28;20111;-65
2022/01/13 04:34:17;;;;;;;42.97;40.72;;;-11.30;70.20;;;;;;5092441;28;20085;-66
2022/01/13 04:36:43;;;;;;;42.67;40.20;;;-11.20;70.20;;;;;;5092185;28;20458;-65
2022/01/13 04:39:10;;;;;;;40.50;38.13;;;-11.30;70.10;;;;;;5092521;28;20482;-65
2022/01/13 04:41:39;;;;;;;42.08;39.17;;;-11.30;70.10;;;;;;5092322;28;20020;-64
2022/01/13 04:44:10;;;;;;;43.55;41.10;;;-11.20;70.10;;;;;;5092414;28;20028;-64
2022/01/13 04:46:36;;;;;;;40.03;37.92;;;-11.20;70.10;;;;;;5092186;28;20363;-65
2022/01/13 04:49:04;;;;;;;42.53;39.58;;;-11.20;70.10;;;;;;5091688;28;20453;-65
2022/01/13 04:51:30;;;;;;;38.88;36.38;;;-11.20;70.10;;;;;;5091860;28;20028;-64
2022/01/13 04:53:56;;;;;;;41.08;38.50;;;-11.10;70.10;;;;;;5091600;28;20020;-64
2022/01/13 04:56:30;;;;;;;39.78;37.80;;;-11.10;69.80;;;;;;5092947;28;20035;-65
2022/01/13 04:58:56;;;;;;;41.83;39.53;;;-11.20;69.90;;;;;;5091555;28;20093;-65
2022/01/13 05:01:23;;;;;;;41.58;39.72;;;-11.20;69.90;;;;;;5092817;28;20020;-64
2022/01/13 05:03:49;;;;;;;45.38;41.75;;;-11.20;70.00;;;;;;5091098;28;20024;-64
2022/01/13 05:06:19;;;;;;;41.13;38.63;;;-11.20;70.00;;;;;;5091698;28;20028;-64
2022/01/13 05:08:48;;;;;;;45.38;42.25;;;-11.20;70.10;;;;;;5092055;28;20028;-65
2022/01/13 05:11:15;;;;;;;47.40;43.47;;;-11.20;70.10;;;;;;5091685;28;20039;-69
2022/01/13 05:13:41;;;;;;;49.40;45.33;;;-11.30;70.10;;;;;;5092063;28;20161;-69
2022/01/13 05:16:10;;;;;;;45.35;42.35;;;-11.30;70.10;;;;;;5125904;28;20066;-69
2022/01/13 05:21:05;;;;;;;44.80;41.90;;;-11.30;70.20;;;;;;5093348;28;20458;-64
2022/01/13 05:23:31;;;;;;;46.53;44.10;;;-11.30;70.10;;;;;;5090760;28;20111;-64
2022/01/13 05:25:57;;;;;;;47.50;44.17;;;-11.40;70.00;;;;;;5091347;28;20044;-64
2022/01/13 05:28:23;;;;;;;46.17;42.85;;;-11.40;70.10;;;;;;5092563;28;20397;-64
2022/01/13 05:30:49;;;;;;;46.58;43.53;;;-11.40;70.10;;;;;;5090975;28;20024;-64
2022/01/13 05:33:15;;;;;;;49.60;46.13;;;-11.40;70.10;;;;;;5093987;28;20077;-64
2022/01/13 05:35:40;;;;;;;43.28;41.22;;;-11.50;70.10;;;;;;5095182;28;20039;-64
2022/01/13 05:38:07;;;;;;;49.42;41.92;;;-11.50;70.20;;;;;;5095142;28;20020;-65
2022/01/13 05:40:35;;;;;;;47.40;44.08;;;-11.50;70.20;;;;;;5096511;28;20043;-66
2022/01/13 05:43:02;;;;;;;46.60;42.72;;;-11.50;70.10;;;;;;5091118;28;20025;-65
2022/01/13 05:45:30;;;;;;;44.65;41.08;;;-11.40;70.30;;;;;;5093961;28;20482;-65
2022/01/13 05:47:58;;;;;;;47.65;44.17;;;-11.40;70.30;;;;;;5093441;28;20028;-66
2022/01/13 05:50:26;;;;;;;47.95;45.50;;;-11.40;70.30;;;;;;5094788;28;20027;-66
2022/01/13 05:52:52;;;;;;;46.63;42.92;;;-11.40;70.10;;;;;;5094720;28;20467;-65
2022/01/13 05:55:18;;;;;;;46.15;43.40;;;-11.50;70.10;;;;;;5094771;28;20054;-65
2022/01/13 05:57:45;;;;;;;44.88;41.20;;;-11.40;70.30;;;;;;5094411;28;20123;-65
2022/01/13 06:00:13;;;;;;;45.30;42.22;;;-11.50;70.20;;;;;;5095165;28;20055;-71
2022/01/13 06:02:40;;;;;;;48.03;45.13;;;-11.50;70.30;;;;;;5094123;28;20036;-72
2022/01/13 06:05:07;;;;;;;47.72;44.78;;;-11.40;70.50;;;;;;5094675;28;20031;-73
2022/01/13 06:07:33;;;;;;;42.42;40.03;;;-11.50;70.40;;;;;;5094857;28;20077;-73
2022/01/13 06:09:59;;;;;;;48.35;45.42;;;-11.50;70.50;;;;;;5092328;28;20607;-72
2022/01/13 06:12:37;;;;;;;42.40;40.03;;;-11.50;70.80;;;;;;5091642;28;20031;-72
2022/01/13 06:15:08;;;;;;;45.08;42.53;;;-11.40;70.70;;;;;;5093828;28;20025;-73
2022/01/13 06:17:36;;;;;;;46.25;42.15;;;-11.40;70.70;;;;;;5092980;28;20387;-73
2022/01/13 06:20:04;;;;;;;48.63;45.72;;;-11.20;71.00;;;;;;5092948;28;20016;-72
2022/01/13 06:22:30;;;;;;;48.28;44.63;;;-11.20;70.90;;;;;;5093041;28;20035;-69
2022/01/13 06:24:56;;;;;;;45.25;42.53;;;-11.20;70.80;;;;;;5093994;28;20024;-68
2022/01/13 06:27:22;;;;;;;47.55;44.35;;;-11.20;70.90;;;;;;5093597;28;20036;-69
2022/01/13 06:29:50;;;;;;;49.58;46.28;;;-11.20;70.90;;;;;;5094063;28;20025;-71
2022/01/13 06:32:16;;;;;;;50.53;46.75;;;-11.10;71.10;;;;;;5093653;28;20109;-68
2022/01/13 06:34:42;;;;;;;42.78;39.95;;;-11.00;71.20;;;;;;5093705;28;20444;-71
2022/01/13 06:37:08;;;;;;;39.97;37.60;;;-11.00;71.20;;;;;;5095371;28;20040;-71
2022/01/13 06:39:33;;;;;;;43.42;39.80;;;-10.90;71.30;;;;;;5093870;28;20032;-70
2022/01/13 06:41:59;;;;;;;42.92;40.58;;;-10.80;71.30;;;;;;5095091;28;20028;-70
2022/01/13 06:44:25;;;;;;;40.20;38.00;;;-10.80;71.20;;;;;;5095038;28;20074;-70
2022/01/13 06:46:50;;;;;;;46.05;42.65;;;-10.80;71.10;;;;;;5094690;28;20105;-69
2022/01/13 06:49:16;;;;;;;43.05;40.03;;;-10.70;71.10;;;;;;5093295;28;20031;-70
2022/01/13 06:51:42;;;;;;;46.38;42.97;;;-10.70;71.30;;;;;;5095139;28;20032;-72
2022/01/13 06:54:07;;;;;;;47.13;43.13;;;-10.60;71.40;;;;;;5094764;28;20434;-72
2022/01/13 06:56:33;;;;;;;46.33;43.38;;;-10.60;71.30;;;;;;5094143;28;20466;-70
2022/01/13 06:58:59;;;;;;;43.55;41.20;;;-10.60;71.40;;;;;;5086890;28;20382;-73
2022/01/13 07:01:25;;;;;;;44.88;41.05;;;-10.50;71.40;;;;;;5073234;28;20021;-72
2022/01/13 07:03:51;;;;;;;47.67;43.50;;;-10.50;71.40;;;;;;5074536;28;20077;-72
2022/01/13 07:06:16;;;;;;;44.70;41.38;;;-10.40;71.50;;;;;;5073051;28;20063;-72
2022/01/13 07:08:42;;;;;;;42.08;39.70;;;-10.40;71.50;;;;;;5072689;28;20047;-69
2022/01/13 07:11:08;;;;;;;41.28;39.00;;;-10.40;71.50;;;;;;5074511;28;20450;-69
2022/01/13 07:13:34;;;;;;;44.80;41.95;;;-10.30;71.70;;;;;;5073179;28;20202;-72
2022/01/13 07:16:01;;;;;;;47.33;42.97;;;-10.20;71.80;;;;;;5074441;28;20039;-72
2022/01/13 07:18:27;;;;;;;43.13;40.33;;;-10.20;71.80;;;;;;5072919;28;20040;-69
2022/01/13 07:20:55;;;;;;;47.72;44.60;;;-10.10;71.80;;;;;;5072839;28;20040;-69
2022/01/13 07:23:20;;;;;;;45.03;41.47;;;-10.00;72.00;;;;;;5089848;28;20027;-69
2022/01/13 07:25:46;;;;;;;45.38;42.25;;;-9.90;71.90;;;;;;5093955;28;20486;-63
2022/01/13 07:28:12;;;;;;;45.97;42.50;;;-9.90;71.90;;;;;;5093233;28;20055;-63
2022/01/13 07:30:37;;;;;;;47.00;42.42;;;-9.80;72.00;;;;;;5094573;28;20400;-61
2022/01/13 07:33:03;;;;;;;38.35;36.42;;;-9.80;71.90;;;;;;5092906;28;20444;-62
2022/01/13 07:35:29;;;;;;;41.88;38.92;;;-9.70;71.80;;;;;;5089830;28;20521;-64
2022/01/13 07:37:54;;;;;;;46.42;43.45;;;-9.70;71.90;;;;;;5091660;28;20031;-64
2022/01/13 07:40:20;;;;;;;45.85;41.95;;;-9.70;72.00;;;;;;5092392;28;20058;-63
2022/01/13 07:42:46;;;;;;;43.25;39.58;;;-9.60;72.00;;;;;;5093849;28;20052;-63
2022/01/13 07:45:15;;;;;;;44.72;41.78;;;-9.50;72.20;;;;;;5093665;28;20020;-64
2022/01/13 07:47:41;;;;;;;41.88;38.80;;;-9.40;72.30;;;;;;5093830;28;20019;-63
2022/01/13 07:50:08;;;;;;;45.60;42.15;;;-9.30;72.30;;;;;;5093684;28;20028;-62
2022/01/13 07:52:34;;;;;;;44.20;41.20;;;-9.20;72.30;;;;;;5092431;28;20028;-62
2022/01/13 07:55:00;;;;;;;44.67;41.90;;;-9.10;72.30;;;;;;5092631;28;20406;-62
2022/01/13 07:57:25;;;;;;;46.28;42.70;;;-9.00;72.40;;;;;;5092725;28;20028;-64
2022/01/13 07:59:56;;;;;;;46.15;42.65;;;-9.00;72.30;;;;;;5092708;28;20027;-63
2022/01/13 08:02:22;;;;;;;43.97;40.95;;;-9.00;72.10;;;;;;5092711;28;20024;-64
2022/01/13 08:04:49;;;;;;;50.40;46.90;;;-8.90;72.00;;;;;;5093737;28;20032;-63
2022/01/13 08:07:18;;;;;;;51.70;46.53;;;-8.90;72.00;;;;;;5092152;28;20039;-63
2022/01/13 08:09:43;;;;;;;50.75;46.95;;;-8.90;72.10;;;;;;5092471;28;20107;-64
2022/01/13 08:12:09;;;;;;;56.22;50.70;;;-8.80;72.20;;;;;;5092443;28;20485;-62
2022/01/13 08:14:35;;;;;;;52.75;48.85;;;-8.70;72.30;;;;;;5092494;28;20030;-62
2022/01/13 08:17:02;;;;;;;51.67;48.33;;;-8.70;72.40;;;;;;5094022;28;20077;-63
2022/01/13 08:19:47;;;;;;;57.22;53.35;;;-8.60;72.40;;;;;;5092391;28;20024;-63
2022/01/13 08:22:16;;;;;;;47.33;44.10;;;-8.50;72.60;;;;;;5092720;28;20074;-64
2022/01/13 08:24:43;;;;;;;48.88;44.53;;;-8.40;72.50;;;;;;5092386;28;20379;-63
2022/01/13 08:27:09;;;;;;;47.70;43.83;;;-8.30;72.40;;;;;;5092316;28;20139;-63
2022/01/13 08:29:35;;;;;;;46.67;42.47;;;-8.20;72.50;;;;;;5091239;28;20058;-62
2022/01/13 08:32:01;;;;;;;40.05;37.58;;;-8.10;72.50;;;;;;5090339;28;20052;-63
2022/01/13 08:34:27;;;;;;;39.53;37.33;;;-8.10;72.40;;;;;;5092103;28;20024;-62
2022/01/13 08:36:52;;;;;;;42.50;39.28;;;-8.00;72.40;;;;;;5093533;28;20032;-62
2022/01/13 08:39:18;;;;;;;43.33;39.75;;;-8.00;72.30;;;;;;5092993;28;20425;-61
2022/01/13 08:41:45;;;;;;;58.08;53.40;;;-8.00;72.10;;;;;;5093247;28;20032;-63
2022/01/13 08:44:11;;;;;;;52.22;47.80;;;-7.90;72.10;;;;;;5093379;28;20020;-63
2022/01/13 08:46:38;;;;;;;51.65;47.75;;;-7.90;72.30;;;;;;5091913;28;20028;-63
2022/01/13 08:49:04;;;;;;;47.72;44.00;;;-7.80;72.20;;;;;;5092213;28;20119;-63
2022/01/13 08:51:30;;;;;;;52.00;47.35;;;-7.70;72.30;;;;;;5092133;28;20120;-62
2022/01/13 10:27:04;;;;;;;63.25;55.33;;;-6.60;70.10;;;;;;5070793;28;20391;-62
2022/01/13 10:29:37;;;;;;;64.88;50.45;;;-6.60;71.60;;;;;;5069515;28;20090;-62
2022/01/13 10:32:03;;;;;;;54.92;49.58;;;-6.40;73.60;;;;;;5070822;28;20021;-62
2022/01/13 10:34:32;;;;;;;62.70;54.75;;;-6.10;74.40;;;;;;5069976;28;20033;-62
2022/01/13 10:37:12;;;;;;;46.28;42.45;;;-6.00;74.60;;;;;;5069532;28;20025;-62
2022/01/13 10:39:52;;;;;;;40.40;36.83;;;-5.70;74.90;;;;;;5070552;28;20025;-62
2022/01/13 10:45:07;;;;;;;38.60;35.65;;;-5.20;74.40;;;;;;5070475;28;20064;-63
2022/01/13 10:47:33;;;;;;;38.00;34.75;;;-5.00;74.30;;;;;;5069045;28;20036;-61
2022/01/13 10:50:11;;;;;;;34.55;32.10;;;-4.80;73.80;;;;;;5070324;28;20032;-62
2022/01/13 10:52:37;;;;;;;35.80;33.28;;;-4.60;73.40;;;;;;5069645;28;20078;-62
2022/01/13 10:55:08;;;;;;;34.42;31.58;;;-4.50;73.50;;;;;;5070471;28;20108;-61
2022/01/13 10:57:35;;;;;;;40.83;36.90;;;-4.30;72.80;;;;;;5069022;28;20383;-61
2022/01/13 11:00:17;;;;;;;37.50;34.55;;;-4.10;73.00;;;;;;5070050;28;20078;-61
2022/01/13 11:02:47;;;;;;;40.63;37.10;;;-4.00;72.70;;;;;;5070153;28;20025;-60
2022/01/13 11:05:13;;;;;;;55.53;47.88;;;-3.90;72.40;;;;;;5069949;28;20040;-63
2022/01/13 11:07:43;;;;;;;94.75;66.50;;;-3.80;71.60;;;;;;5068938;28;20032;-62
2022/01/13 11:10:09;;;;;;;64.72;54.83;;;-3.90;71.20;;;;;;5070112;28;20032;-62
2022/01/13 11:12:43;;;;;;;79.53;55.45;;;-3.90;71.00;;;;;;5060590;28;20051;-61
2022/01/13 11:15:14;;;;;;;50.75;45.58;;;-3.80;71.00;;;;;;5062881;28;20071;-59
2022/01/13 11:17:41;;;;;;;47.25;42.28;;;-3.70;71.10;;;;;;5048681;28;20434;-60
2022/01/13 11:20:14;;;;;;;46.17;42.13;;;-3.60;71.20;;;;;;5053677;28;20013;-60
2022/01/13 11:22:42;;;;;;;43.25;39.38;;;-3.60;71.10;;;;;;5061372;28;20028;-62
2022/01/13 11:25:14;;;;;;;53.05;40.95;;;-3.50;71.10;;;;;;5057064;28;20487;-60
2022/01/13 11:27:41;;;;;;;46.55;41.47;;;-3.40;71.20;;;;;;5056153;28;20033;-60
2022/01/13 11:30:13;;;;;;;39.58;36.20;;;-3.30;71.00;;;;;;5058364;28;20028;-61
2022/01/13 11:32:40;;;;;;;43.35;38.80;;;-3.20;71.00;;;;;;5060608;28;20584;-61
2022/01/13 11:35:07;;;;;;;42.90;38.58;;;-3.20;70.80;;;;;;5057112;28;20132;-61
2022/01/13 11:37:34;;;;;;;41.60;37.35;;;-3.20;70.60;;;;;;5049427;28;20025;-61
2022/01/13 11:40:00;;;;;;;40.95;36.25;;;-3.20;70.60;;;;;;5040125;28;20393;-61
2022/01/13 11:42:26;;;;;;;39.33;35.65;;;-3.10;70.50;;;;;;5043361;28;20112;-61
2022/01/13 11:45:10;;;;;;;38.03;34.67;;;-3.10;70.30;;;;;;5044279;28;20056;-61
2022/01/13 11:47:36;;;;;;;37.72;34.08;;;-3.10;70.20;;;;;;5046307;28;20392;-62
2022/01/13 11:50:21;;;;;;;40.53;36.72;;;-3.10;70.20;;;;;;5046094;28;20032;-62
2022/01/13 11:52:52;;;;;;;36.55;33.78;;;-3.00;70.30;;;;;;5046342;28;20102;-62
2022/01/13 11:55:28;;;;;;;42.90;39.30;;;-3.00;70.20;;;;;;5045399;28;20021;-62
2022/01/13 11:58:15;;;;;;;37.95;34.22;;;-3.00;70.10;;;;;;5043843;28;20033;-61
2022/01/13 12:00:42;;;;;;;;;;;-3.10;70.00;;;;;;5036379;28;20022;-61
2022/01/13 12:03:26;;;;;;;;;;;-3.00;70.00;;;;;;5045919;28;19908;-61
2022/01/13 12:05:54;;;;;;;47.08;36.63;;;-3.00;69.70;;;;;;5055574;28;19908;-61
2022/01/13 12:08:38;;;;;;;46.53;42.55;;;-3.00;69.50;;;;;;5055525;28;20029;-62
2022/01/13 12:11:04;;;;;;;55.15;44.85;;;-3.10;69.60;;;;;;5054424;28;20044;-62
2022/01/13 12:13:35;;;;;;;41.10;35.55;;;-3.10;69.60;;;;;;5055868;28;20357;-61
2022/01/13 12:16:02;;;;;;;41.53;35.70;;;-3.20;69.50;;;;;;5054202;28;20036;-60
2022/01/13 12:18:59;;;;;;;40.28;36.63;;;-3.20;69.60;;;;;;5053873;28;20033;-61
2022/01/13 12:21:27;;;;;;;;;;;-3.30;69.70;;;;;;5055735;28;20021;-62
2022/01/13 12:23:52;;;;;;;41.40;31.17;;;-3.20;69.80;;;;;;5055095;28;19904;-61
2022/01/13 12:26:33;;;;;;;36.40;32.97;;;-3.20;69.70;;;;;;5053337;28;20080;-61
2022/01/13 12:29:28;;;;;;;33.75;31.08;;;-3.20;69.50;;;;;;5054961;28;20070;-61
2022/01/13 12:32:01;;;;;;;32.25;29.73;;;-3.30;69.50;;;;;;5042186;28;20542;-60
2022/01/13 12:34:32;;;;;;;33.17;30.30;;;-3.30;69.70;;;;;;5043340;28;20112;-61
2022/01/13 12:37:12;;;;;;;36.35;33.13;;;-3.30;69.70;;;;;;5044194;28;20029;-62
2022/01/13 12:39:55;;;;;;;35.85;32.63;;;-3.30;69.70;;;;;;5044235;28;20029;-61
2022/01/13 12:42:36;;;;;;;35.28;31.95;;;-3.30;69.70;;;;;;5054948;28;20021;-61
2022/01/13 12:47:49;;;;;;;41.55;37.22;;;-3.30;69.90;;;;;;5054876;28;20124;-61
2022/01/13 12:50:27;;;;;;;41.20;37.30;;;-3.40;69.70;;;;;;5053146;28;20123;-61
2022/01/13 12:52:57;;;;;;;55.85;46.45;;;-3.40;69.80;;;;;;5054942;28;20025;-61
2022/01/13 12:55:23;;;;;;;47.42;42.42;;;-3.30;70.10;;;;;;5042845;28;20475;-61
2022/01/13 12:57:54;;;;;;;42.97;38.83;;;-3.30;70.10;;;;;;5044840;28;20108;-61
2022/01/13 13:00:23;;;;;;;50.17;44.92;;;-3.30;70.10;;;;;;5044448;28;20492;-62
2022/01/13 13:02:53;;;;;;;72.40;54.35;;;-3.30;70.20;;;;;;5036941;28;20079;-62
2022/01/13 13:05:29;;;;;;;75.82;55.33;;;-3.30;70.20;;;;;;5035172;28;20063;-62
2022/01/13 13:07:55;;;;;;;105.18;64.88;;;-3.30;70.20;;;;;;5042816;28;20056;-62
2022/01/13 13:10:21;;;;;;;81.05;61.67;;;-3.40;70.10;;;;;;5041092;28;20467;-62
2022/01/13 13:12:52;;;;;;;98.43;70.97;;;-3.40;70.20;;;;;;5043769;28;20044;-61
2022/01/13 13:17:45;;;;;;;79.72;55.72;;;-3.40;70.50;;;;;;5043018;28;20033;-62
2022/01/13 13:20:30;;;;;;;69.90;54.10;;;-3.30;71.30;;;;;;5041328;28;20543;-62
2022/01/13 13:22:59;;;;;;;72.85;59.22;;;-3.30;70.80;;;;;;5042398;28;20021;-62
2022/01/13 13:25:40;;;;;;;56.35;50.03;;;-3.20;70.70;;;;;;5041865;28;20140;-62
2022/01/13 13:28:25;;;;;;;40.45;36.65;;;-3.30;70.70;;;;;;5043409;28;20020;-63
2022/01/13 13:31:03;;;;;;;42.13;37.63;;;-3.20;70.80;;;;;;5043498;28;20104;-62
2022/01/13 13:33:36;;;;;;;42.95;38.40;;;-3.20;70.80;;;;;;5043433;28;20585;-62
2022/01/13 13:36:11;;;;;;;50.22;38.28;;;-3.20;70.80;;;;;;5042930;28;20036;-62
2022/01/13 13:39:15;;;;;;;41.33;36.85;;;-3.20;70.80;;;;;;5042031;28;20503;-61
2022/01/13 13:41:43;;;;;;;37.33;33.72;;;-3.20;71.00;;;;;;5042348;28;20036;-62
2022/01/13 13:44:13;;;;;;;44.47;40.17;;;-3.20;70.90;;;;;;5042215;28;20017;-61
2022/01/13 13:46:39;;;;;;;45.70;41.15;;;-3.10;71.00;;;;;;5042588;28;20462;-62
2022/01/13 13:49:06;;;;;;;39.25;35.85;;;-3.10;71.20;;;;;;5039606;28;20112;-61
2022/01/13 13:51:34;;;;;;;36.97;33.25;;;-3.10;71.20;;;;;;5033723;28;20057;-61
2022/01/13 13:54:07;;;;;;;38.70;35.13;;;-3.10;71.30;;;;;;5032685;28;20029;-60
2022/01/13 13:56:45;;;;;;;39.95;35.10;;;-3.10;71.30;;;;;;5032583;28;20029;-61
2022/01/13 13:59:23;;;;;;;37.88;34.55;;;-3.10;72.00;;;;;;5032308;28;20029;-61
2022/01/13 14:02:10;;;;;;;40.38;36.75;;;-3.00;71.40;;;;;;5032422;28;20103;-61
2022/01/13 14:04:43;;;;;;;38.15;34.35;;;-3.00;71.50;;;;;;5032367;28;20025;-62
2022/01/13 14:07:19;;;;;;;35.40;32.22;;;-3.00;71.60;;;;;;5032332;28;20029;-62
2022/01/13 14:09:51;;;;;;;41.63;37.83;;;-3.00;71.70;;;;;;5032237;28;20025;-70
2022/01/13 14:12:26;;;;;;;38.00;34.42;;;-2.90;71.80;;;;;;5033199;28;20034;-69
2022/01/13 14:14:52;;;;;;;37.17;33.70;;;-2.90;71.80;;;;;;5032498;28;20454;-68
2022/01/13 14:17:29;;;;;;;39.60;35.33;;;-2.90;71.90;;;;;;5033522;28;20053;-68
2022/01/13 14:20:07;;;;;;;41.08;37.08;;;-2.90;72.10;;;;;;5032285;28;20026;-70
2022/01/13 14:22:33;;;;;;;41.40;36.92;;;-2.90;72.30;;;;;;5033116;28;20025;-69
2022/01/13 14:24:58;;;;;;;41.00;37.40;;;-2.90;72.40;;;;;;5032931;28;20503;-68
2022/01/13 14:27:26;;;;;;;40.58;36.38;;;-2.90;72.50;;;;;;5033549;28;20064;-68
2022/01/13 14:29:52;;;;;;;40.47;36.35;;;-2.90;72.60;;;;;;5034129;28;20033;-69
2022/01/13 14:32:29;;;;;;;40.72;36.75;;;-3.00;72.70;;;;;;5036144;28;20356;-68
2022/01/13 14:34:57;;;;;;;42.47;38.78;;;-3.00;72.90;;;;;;5034619;28;20373;-69